sensor_id;sensor_type;location;lat;lon;timestamp;pressure;altitude;pressure_sealevel;temperature;humidity
14393;BME280;7281;42.678;23.372;2022-07-22T00:00:00;95128.81;;;27.49;nan
14393;BME280;7281;42.678;23.372;2022-07-22T00:02:30;95121.28;;;27.58;nan
14393;BME280;7281;42.678;23.372;2022-07-22T00:04:57;95130.66;;;27.45;nan
14393;BME280;7281;42.678;23.372;2022-07-22T00:07:24;95132.03;;;27.35;nan
14393;BME280;7281;42.678;23.372;2022-07-22T00:09:51;95125.69;;;27.28;nan
14393;BME280;7281;42.678;23.372;2022-07-22T00:12:17;95128.25;;;27.40;nan
14393;BME280;7281;42.678;23.372;2022-07-22T00:14:44;95130.66;;;27.26;nan
14393;BME280;7281;42.678;23.372;2022-07-22T00:17:11;95130.28;;;27.46;nan
14393;BME280;7281;42.678;23.372;2022-07-22T00:19:38;95139.03;;;27.40;nan
14393;BME280;7281;42.678;23.372;2022-07-22T00:22:05;95135.06;;;27.34;nan
14393;BME280;7281;42.678;23.372;2022-07-22T00:24:32;95145.13;;;27.37;nan
14393;BME280;7281;42.678;23.372;2022-07-22T00:26:59;95145.13;;;27.37;nan
14393;BME280;7281;42.678;23.372;2022-07-22T00:29:26;95145.63;;;26.88;nan
14393;BME280;7281;42.678;23.372;2022-07-22T00:31:53;95136.59;;;26.96;nan
14393;BME280;7281;42.678;23.372;2022-07-22T00:34:20;95149.03;;;27.04;nan
14393;BME280;7281;42.678;23.372;2022-07-22T00:36:48;95150.63;;;26.71;nan
14393;BME280;7281;42.678;23.372;2022-07-22T00:39:15;95146.81;;;26.72;nan
14393;BME280;7281;42.678;23.372;2022-07-22T00:41:42;95152.41;;;26.82;nan
14393;BME280;7281;42.678;23.372;2022-07-22T00:44:09;95147.63;;;26.91;nan
14393;BME280;7281;42.678;23.372;2022-07-22T00:46:37;95148.16;;;26.81;nan
14393;BME280;7281;42.678;23.372;2022-07-22T00:49:05;95145.63;;;26.88;nan
14393;BME280;7281;42.678;23.372;2022-07-22T00:51:33;95141.41;;;26.87;nan
14393;BME280;7281;42.678;23.372;2022-07-22T00:54:02;95142.28;;;26.76;nan
14393;BME280;7281;42.678;23.372;2022-07-22T00:56:29;95133.19;;;26.80;nan
14393;BME280;7281;42.678;23.372;2022-07-22T00:59:00;95132.41;;;26.80;nan
14393;BME280;7281;42.678;23.372;2022-07-22T01:01:27;95133.03;;;26.58;nan
14393;BME280;7281;42.678;23.372;2022-07-22T01:03:55;95130.16;;;26.16;nan
14393;BME280;7281;42.678;23.372;2022-07-22T01:06:28;95136.53;;;26.43;nan
14393;BME280;7281;42.678;23.372;2022-07-22T01:08:56;95136.38;;;26.20;nan
14393;BME280;7281;42.678;23.372;2022-07-22T01:11:25;95135.44;;;26.13;nan
14393;BME280;7281;42.678;23.372;2022-07-22T01:13:54;95129.44;;;26.19;nan
14393;BME280;7281;42.678;23.372;2022-07-22T01:16:24;95132.72;;;26.28;nan
14393;BME280;7281;42.678;23.372;2022-07-22T01:18:51;95138.09;;;26.28;nan
14393;BME280;7281;42.678;23.372;2022-07-22T01:21:18;95139.56;;;26.41;nan
14393;BME280;7281;42.678;23.372;2022-07-22T01:23:46;95139.69;;;26.29;nan
14393;BME280;7281;42.678;23.372;2022-07-22T01:26:13;95136.13;;;26.25;nan
14393;BME280;7281;42.678;23.372;2022-07-22T01:28:41;95127.50;;;26.35;nan
14393;BME280;7281;42.678;23.372;2022-07-22T01:31:08;95136.13;;;26.25;nan
14393;BME280;7281;42.678;23.372;2022-07-22T01:33:35;95129.66;;;25.98;nan
14393;BME280;7281;42.678;23.372;2022-07-22T01:36:03;95137.16;;;26.21;nan
14393;BME280;7281;42.678;23.372;2022-07-22T01:38:30;95125.88;;;26.31;nan
14393;BME280;7281;42.678;23.372;2022-07-22T01:40:58;95123.56;;;26.29;nan
14393;BME280;7281;42.678;23.372;2022-07-22T01:43:26;95133.75;;;26.39;nan
14393;BME280;7281;42.678;23.372;2022-07-22T01:45:54;95134.81;;;26.35;nan
14393;BME280;7281;42.678;23.372;2022-07-22T01:48:22;95135.41;;;26.28;nan
14393;BME280;7281;42.678;23.372;2022-07-22T01:50:50;95134.47;;;26.36;nan
14393;BME280;7281;42.678;23.372;2022-07-22T01:53:17;95137.31;;;26.43;nan
14393;BME280;7281;42.678;23.372;2022-07-22T01:55:46;95136.28;;;26.32;nan
14393;BME280;7281;42.678;23.372;2022-07-22T01:58:14;95145.88;;;26.33;nan
14393;BME280;7281;42.678;23.372;2022-07-22T02:00:41;95136.81;;;26.22;nan
14393;BME280;7281;42.678;23.372;2022-07-22T02:03:09;95134.81;;;26.19;nan
14393;BME280;7281;42.678;23.372;2022-07-22T02:05:37;95133.34;;;26.22;nan
14393;BME280;7281;42.678;23.372;2022-07-22T02:08:16;95145.91;;;26.02;nan
14393;BME280;7281;42.678;23.372;2022-07-22T02:11:01;95146.47;;;25.95;nan
14393;BME280;7281;42.678;23.372;2022-07-22T02:13:29;95153.13;;;25.86;nan
14393;BME280;7281;42.678;23.372;2022-07-22T02:15:55;95149.44;;;25.90;nan
14393;BME280;7281;42.678;23.372;2022-07-22T02:18:22;95166.09;;;25.53;nan
14393;BME280;7281;42.678;23.372;2022-07-22T02:20:49;95160.53;;;25.89;nan
14393;BME280;7281;42.678;23.372;2022-07-22T02:23:17;95165.81;;;26.01;nan
14393;BME280;7281;42.678;23.372;2022-07-22T02:25:45;95161.91;;;25.98;nan
14393;BME280;7281;42.678;23.372;2022-07-22T02:28:12;95157.53;;;25.78;nan
14393;BME280;7281;42.678;23.372;2022-07-22T02:30:39;95169.16;;;25.82;nan
14393;BME280;7281;42.678;23.372;2022-07-22T02:33:06;95162.34;;;25.85;nan
14393;BME280;7281;42.678;23.372;2022-07-22T02:35:33;95158.84;;;25.69;nan
14393;BME280;7281;42.678;23.372;2022-07-22T02:38:00;95157.28;;;25.68;nan
14393;BME280;7281;42.678;23.372;2022-07-22T02:40:30;95160.06;;;25.71;nan
14393;BME280;7281;42.678;23.372;2022-07-22T02:42:57;95154.94;;;25.66;nan
14393;BME280;7281;42.678;23.372;2022-07-22T02:45:23;95155.72;;;25.67;nan
14393;BME280;7281;42.678;23.372;2022-07-22T02:47:53;95165.09;;;25.73;nan
14393;BME280;7281;42.678;23.372;2022-07-22T02:50:22;95160.72;;;25.53;nan
14393;BME280;7281;42.678;23.372;2022-07-22T02:52:49;95161.41;;;25.50;nan
14393;BME280;7281;42.678;23.372;2022-07-22T02:55:19;95157.78;;;25.58;nan
14393;BME280;7281;42.678;23.372;2022-07-22T02:57:48;95158.28;;;25.48;nan
14393;BME280;7281;42.678;23.372;2022-07-22T03:00:16;95166.09;;;25.53;nan
14393;BME280;7281;42.678;23.372;2022-07-22T03:02:44;95159.16;;;25.52;nan
14393;BME280;7281;42.678;23.372;2022-07-22T03:05:11;95158.56;;;25.31;nan
14393;BME280;7281;42.678;23.372;2022-07-22T03:07:47;95162.84;;;25.20;nan
14393;BME280;7281;42.678;23.372;2022-07-22T03:10:15;95159.00;;;25.33;nan
14393;BME280;7281;42.678;23.372;2022-07-22T03:12:42;95148.03;;;25.38;nan
14393;BME280;7281;42.678;23.372;2022-07-22T03:15:09;95165.34;;;25.40;nan
14393;BME280;7281;42.678;23.372;2022-07-22T03:17:37;95156.72;;;25.35;nan
14393;BME280;7281;42.678;23.372;2022-07-22T03:20:08;95154.81;;;25.20;nan
14393;BME280;7281;42.678;23.372;2022-07-22T03:22:36;95163.75;;;25.12;nan
14393;BME280;7281;42.678;23.372;2022-07-22T03:25:04;95160.16;;;25.20;nan
14393;BME280;7281;42.678;23.372;2022-07-22T03:27:32;95158.94;;;24.53;nan
14393;BME280;7281;42.678;23.372;2022-07-22T03:30:00;95168.56;;;24.30;nan
14393;BME280;7281;42.678;23.372;2022-07-22T03:32:27;95160.63;;;24.58;nan
14393;BME280;7281;42.678;23.372;2022-07-22T03:34:54;95174.34;;;24.68;nan
14393;BME280;7281;42.678;23.372;2022-07-22T03:37:30;95174.53;;;24.99;nan
14393;BME280;7281;42.678;23.372;2022-07-22T03:39:58;95169.28;;;25.31;nan
14393;BME280;7281;42.678;23.372;2022-07-22T03:42:25;95174.56;;;25.27;nan
14393;BME280;7281;42.678;23.372;2022-07-22T03:44:52;95166.28;;;25.20;nan
14393;BME280;7281;42.678;23.372;2022-07-22T03:47:21;95170.44;;;25.18;nan
14393;BME280;7281;42.678;23.372;2022-07-22T03:49:49;95178.38;;;25.54;nan
14393;BME280;7281;42.678;23.372;2022-07-22T03:52:24;95178.69;;;25.25;nan
14393;BME280;7281;42.678;23.372;2022-07-22T03:54:51;95178.94;;;25.20;nan
14393;BME280;7281;42.678;23.372;2022-07-22T03:57:18;95179.13;;;25.27;nan
14393;BME280;7281;42.678;23.372;2022-07-22T03:59:51;95186.56;;;25.05;nan
14393;BME280;7281;42.678;23.372;2022-07-22T04:02:18;95183.97;;;25.09;nan
14393;BME280;7281;42.678;23.372;2022-07-22T04:04:46;95187.44;;;25.22;nan
14393;BME280;7281;42.678;23.372;2022-07-22T04:07:14;95189.34;;;25.09;nan
14393;BME280;7281;42.678;23.372;2022-07-22T04:09:41;95180.59;;;25.24;nan
14393;BME280;7281;42.678;23.372;2022-07-22T04:12:08;95192.09;;;25.25;nan
14393;BME280;7281;42.678;23.372;2022-07-22T04:14:51;95185.91;;;24.96;nan
14393;BME280;7281;42.678;23.372;2022-07-22T04:17:18;95196.31;;;24.98;nan
14393;BME280;7281;42.678;23.372;2022-07-22T04:19:45;95189.66;;;25.20;nan
14393;BME280;7281;42.678;23.372;2022-07-22T04:22:25;95178.66;;;24.97;nan
14393;BME280;7281;42.678;23.372;2022-07-22T04:24:54;95199.50;;;25.16;nan
14393;BME280;7281;42.678;23.372;2022-07-22T04:27:21;95196.34;;;25.38;nan
14393;BME280;7281;42.678;23.372;2022-07-22T04:29:48;95200.53;;;25.51;nan
14393;BME280;7281;42.678;23.372;2022-07-22T04:32:15;95202.91;;;25.68;nan
14393;BME280;7281;42.678;23.372;2022-07-22T04:34:42;95208.38;;;25.71;nan
14393;BME280;7281;42.678;23.372;2022-07-22T04:37:10;95203.34;;;25.70;nan
14393;BME280;7281;42.678;23.372;2022-07-22T04:39:38;95210.19;;;25.67;nan
14393;BME280;7281;42.678;23.372;2022-07-22T04:42:06;95209.41;;;25.67;nan
14393;BME280;7281;42.678;23.372;2022-07-22T04:44:33;95212.09;;;25.67;nan
14393;BME280;7281;42.678;23.372;2022-07-22T04:47:00;95210.38;;;25.47;nan
14393;BME280;7281;42.678;23.372;2022-07-22T04:49:33;95215.44;;;25.64;nan
14393;BME280;7281;42.678;23.372;2022-07-22T04:52:00;95217.13;;;25.68;nan
14393;BME280;7281;42.678;23.372;2022-07-22T04:54:38;95213.19;;;25.66;nan
14393;BME280;7281;42.678;23.372;2022-07-22T04:57:06;95221.69;;;25.95;nan
14393;BME280;7281;42.678;23.372;2022-07-22T04:59:33;95221.50;;;25.88;nan
14393;BME280;7281;42.678;23.372;2022-07-22T05:02:01;95222.94;;;25.86;nan
14393;BME280;7281;42.678;23.372;2022-07-22T05:04:29;95209.53;;;25.19;nan
14393;BME280;7281;42.678;23.372;2022-07-22T05:06:56;95225.50;;;25.39;nan
14393;BME280;7281;42.678;23.372;2022-07-22T05:09:23;95220.94;;;25.67;nan
14393;BME280;7281;42.678;23.372;2022-07-22T05:11:50;95218.28;;;25.83;nan
14393;BME280;7281;42.678;23.372;2022-07-22T05:14:19;95213.47;;;26.04;nan
14393;BME280;7281;42.678;23.372;2022-07-22T05:16:47;95225.13;;;25.53;nan
14393;BME280;7281;42.678;23.372;2022-07-22T05:19:14;95214.16;;;26.01;nan
14393;BME280;7281;42.678;23.372;2022-07-22T05:21:41;95220.44;;;25.77;nan
14393;BME280;7281;42.678;23.372;2022-07-22T05:24:08;95220.69;;;26.16;nan
14393;BME280;7281;42.678;23.372;2022-07-22T05:26:35;95218.34;;;26.45;nan
14393;BME280;7281;42.678;23.372;2022-07-22T05:29:02;95219.03;;;26.42;nan
14393;BME280;7281;42.678;23.372;2022-07-22T05:31:29;95227.38;;;26.68;nan
14393;BME280;7281;42.678;23.372;2022-07-22T05:33:56;95229.78;;;26.11;nan
14393;BME280;7281;42.678;23.372;2022-07-22T05:36:27;95225.13;;;25.53;nan
14393;BME280;7281;42.678;23.372;2022-07-22T05:38:55;95224.06;;;26.28;nan
14393;BME280;7281;42.678;23.372;2022-07-22T05:41:22;95221.97;;;26.06;nan
14393;BME280;7281;42.678;23.372;2022-07-22T05:43:50;95221.38;;;26.13;nan
14393;BME280;7281;42.678;23.372;2022-07-22T05:46:18;95231.78;;;26.30;nan
14393;BME280;7281;42.678;23.372;2022-07-22T05:48:47;95220.94;;;26.88;nan
14393;BME280;7281;42.678;23.372;2022-07-22T05:51:14;95223.69;;;27.08;nan
14393;BME280;7281;42.678;23.372;2022-07-22T05:53:43;95220.19;;;26.57;nan
14393;BME280;7281;42.678;23.372;2022-07-22T05:56:11;95203.72;;;26.27;nan
14393;BME280;7281;42.678;23.372;2022-07-22T05:58:40;95220.56;;;27.06;nan
14393;BME280;7281;42.678;23.372;2022-07-22T06:01:09;95225.06;;;27.01;nan
14393;BME280;7281;42.678;23.372;2022-07-22T06:03:38;95217.56;;;26.76;nan
14393;BME280;7281;42.678;23.372;2022-07-22T06:06:05;95213.66;;;27.43;nan
14393;BME280;7281;42.678;23.372;2022-07-22T06:08:36;95218.44;;;27.15;nan
14393;BME280;7281;42.678;23.372;2022-07-22T06:11:04;95215.44;;;27.54;nan
14393;BME280;7281;42.678;23.372;2022-07-22T06:13:32;95212.09;;;27.99;nan
14393;BME280;7281;42.678;23.372;2022-07-22T06:16:00;95219.69;;;27.01;nan
14393;BME280;7281;42.678;23.372;2022-07-22T06:18:28;95222.47;;;27.59;nan
14393;BME280;7281;42.678;23.372;2022-07-22T06:20:54;95217.47;;;27.80;nan
14393;BME280;7281;42.678;23.372;2022-07-22T06:23:23;95221.72;;;27.81;nan
14393;BME280;7281;42.678;23.372;2022-07-22T06:25:51;95221.00;;;28.03;nan
14393;BME280;7281;42.678;23.372;2022-07-22T06:28:24;95217.88;;;28.01;nan
14393;BME280;7281;42.678;23.372;2022-07-22T06:30:51;95223.69;;;28.22;nan
14393;BME280;7281;42.678;23.372;2022-07-22T06:33:20;95218.03;;;28.08;nan
14393;BME280;7281;42.678;23.372;2022-07-22T06:35:47;95215.50;;;27.58;nan
14393;BME280;7281;42.678;23.372;2022-07-22T06:38:14;95211.81;;;28.04;nan
14393;BME280;7281;42.678;23.372;2022-07-22T06:41:24;95222.78;;;28.37;nan
14393;BME280;7281;42.678;23.372;2022-07-22T06:44:04;95220.25;;;28.25;nan
14393;BME280;7281;42.678;23.372;2022-07-22T06:46:51;95214.13;;;28.51;nan
14393;BME280;7281;42.678;23.372;2022-07-22T06:49:20;95217.34;;;28.56;nan
14393;BME280;7281;42.678;23.372;2022-07-22T06:51:47;95214.56;;;28.75;nan
14393;BME280;7281;42.678;23.372;2022-07-22T06:54:14;95212.22;;;28.74;nan
14393;BME280;7281;42.678;23.372;2022-07-22T06:56:41;95214.94;;;28.74;nan
14393;BME280;7281;42.678;23.372;2022-07-22T06:59:12;95216.44;;;29.24;nan
14393;BME280;7281;42.678;23.372;2022-07-22T07:01:41;95206.63;;;29.42;nan
14393;BME280;7281;42.678;23.372;2022-07-22T07:04:08;95219.47;;;29.78;nan
14393;BME280;7281;42.678;23.372;2022-07-22T07:06:35;95216.53;;;29.64;nan
14393;BME280;7281;42.678;23.372;2022-07-22T07:09:09;95225.13;;;29.69;nan
14393;BME280;7281;42.678;23.372;2022-07-22T07:11:36;95221.88;;;29.57;nan
14393;BME280;7281;42.678;23.372;2022-07-22T07:14:11;95211.13;;;29.64;nan
14393;BME280;7281;42.678;23.372;2022-07-22T07:16:38;95215.19;;;29.77;nan
14393;BME280;7281;42.678;23.372;2022-07-22T07:19:06;95207.59;;;30.26;nan
14393;BME280;7281;42.678;23.372;2022-07-22T07:21:33;95209.34;;;30.08;nan
14393;BME280;7281;42.678;23.372;2022-07-22T07:23:59;95217.78;;;30.03;nan
14393;BME280;7281;42.678;23.372;2022-07-22T07:26:28;95221.63;;;30.02;nan
14393;BME280;7281;42.678;23.372;2022-07-22T07:28:55;95215.63;;;30.19;nan
14393;BME280;7281;42.678;23.372;2022-07-22T07:31:30;95212.03;;;30.45;nan
14393;BME280;7281;42.678;23.372;2022-07-22T07:34:00;95208.47;;;30.37;nan
14393;BME280;7281;42.678;23.372;2022-07-22T07:36:27;95206.19;;;30.86;nan
14393;BME280;7281;42.678;23.372;2022-07-22T07:38:54;95208.50;;;30.84;nan
14393;BME280;7281;42.678;23.372;2022-07-22T07:41:21;95207.66;;;30.80;nan
14393;BME280;7281;42.678;23.372;2022-07-22T07:43:50;95212.38;;;30.87;nan
14393;BME280;7281;42.678;23.372;2022-07-22T07:46:17;95199.00;;;31.12;nan
14393;BME280;7281;42.678;23.372;2022-07-22T07:48:44;95196.25;;;31.05;nan
14393;BME280;7281;42.678;23.372;2022-07-22T07:51:11;95208.13;;;31.54;nan
14393;BME280;7281;42.678;23.372;2022-07-22T07:53:40;95211.34;;;31.88;nan
14393;BME280;7281;42.678;23.372;2022-07-22T07:56:09;95209.00;;;31.79;nan
14393;BME280;7281;42.678;23.372;2022-07-22T07:58:36;95208.31;;;31.97;nan
14393;BME280;7281;42.678;23.372;2022-07-22T08:01:05;95190.47;;;31.96;nan
14393;BME280;7281;42.678;23.372;2022-07-22T08:03:34;95209.09;;;32.01;nan
14393;BME280;7281;42.678;23.372;2022-07-22T08:06:01;95202.91;;;32.07;nan
14393;BME280;7281;42.678;23.372;2022-07-22T08:08:29;95213.75;;;32.07;nan
14393;BME280;7281;42.678;23.372;2022-07-22T08:11:01;95214.53;;;32.18;nan
14393;BME280;7281;42.678;23.372;2022-07-22T08:13:31;95204.41;;;31.91;nan
14393;BME280;7281;42.678;23.372;2022-07-22T08:16:01;95207.59;;;32.24;nan
14393;BME280;7281;42.678;23.372;2022-07-22T08:18:28;95206.06;;;32.65;nan
14393;BME280;7281;42.678;23.372;2022-07-22T08:20:56;95195.59;;;32.81;nan
14393;BME280;7281;42.678;23.372;2022-07-22T08:23:52;95204.53;;;32.75;nan
14393;BME280;7281;42.678;23.372;2022-07-22T08:26:19;95204.50;;;32.36;nan
14393;BME280;7281;42.678;23.372;2022-07-22T08:28:46;95208.03;;;32.79;nan
14393;BME280;7281;42.678;23.372;2022-07-22T08:31:13;95202.19;;;32.77;nan
14393;BME280;7281;42.678;23.372;2022-07-22T08:33:40;95218.47;;;33.05;nan
14393;BME280;7281;42.678;23.372;2022-07-22T08:36:07;95210.69;;;33.11;nan
14393;BME280;7281;42.678;23.372;2022-07-22T08:38:34;95199.00;;;33.35;nan
14393;BME280;7281;42.678;23.372;2022-07-22T08:41:22;95205.22;;;33.35;nan
14393;BME280;7281;42.678;23.372;2022-07-22T08:43:50;95216.03;;;33.53;nan
14393;BME280;7281;42.678;23.372;2022-07-22T08:46:18;95212.97;;;33.33;nan
14393;BME280;7281;42.678;23.372;2022-07-22T08:49:05;95197.16;;;32.97;nan
14393;BME280;7281;42.678;23.372;2022-07-22T08:51:52;95206.06;;;33.01;nan
14393;BME280;7281;42.678;23.372;2022-07-22T08:54:22;95203.94;;;33.68;nan
14393;BME280;7281;42.678;23.372;2022-07-22T08:56:50;95200.34;;;33.92;nan
14393;BME280;7281;42.678;23.372;2022-07-22T08:59:19;95209.28;;;33.89;nan
14393;BME280;7281;42.678;23.372;2022-07-22T09:02:15;95203.66;;;33.45;nan
14393;BME280;7281;42.678;23.372;2022-07-22T09:04:50;95209.75;;;33.77;nan
14393;BME280;7281;42.678;23.372;2022-07-22T09:07:30;95204.97;;;34.02;nan
14393;BME280;7281;42.678;23.372;2022-07-22T09:10:06;95202.66;;;33.97;nan
14393;BME280;7281;42.678;23.372;2022-07-22T09:12:59;95204.75;;;34.37;nan
14393;BME280;7281;42.678;23.372;2022-07-22T09:16:02;95202.47;;;34.29;nan
14393;BME280;7281;42.678;23.372;2022-07-22T09:18:50;95215.72;;;34.20;nan
14393;BME280;7281;42.678;23.372;2022-07-22T09:21:29;95204.50;;;34.18;nan
14393;BME280;7281;42.678;23.372;2022-07-22T09:24:30;95208.88;;;34.01;nan
14393;BME280;7281;42.678;23.372;2022-07-22T09:27:08;95208.97;;;34.45;nan
14393;BME280;7281;42.678;23.372;2022-07-22T09:29:54;95213.00;;;34.78;nan
14393;BME280;7281;42.678;23.372;2022-07-22T09:32:39;95198.31;;;34.68;nan
14393;BME280;7281;42.678;23.372;2022-07-22T09:35:26;95201.53;;;35.01;nan
14393;BME280;7281;42.678;23.372;2022-07-22T09:38:04;95202.53;;;35.17;nan
14393;BME280;7281;42.678;23.372;2022-07-22T09:40:37;95193.59;;;35.54;nan
14393;BME280;7281;42.678;23.372;2022-07-22T09:43:12;95207.69;;;35.49;nan
14393;BME280;7281;42.678;23.372;2022-07-22T09:45:54;95202.88;;;35.60;nan
14393;BME280;7281;42.678;23.372;2022-07-22T09:48:47;95202.03;;;35.26;nan
14393;BME280;7281;42.678;23.372;2022-07-22T09:51:33;95199.78;;;35.21;nan
14393;BME280;7281;42.678;23.372;2022-07-22T09:54:14;95197.41;;;35.60;nan
14393;BME280;7281;42.678;23.372;2022-07-22T09:56:42;95182.28;;;35.18;nan
14393;BME280;7281;42.678;23.372;2022-07-22T09:59:09;95193.50;;;35.61;nan
14393;BME280;7281;42.678;23.372;2022-07-22T10:01:42;95191.94;;;35.26;nan
14393;BME280;7281;42.678;23.372;2022-07-22T10:04:10;95194.94;;;35.73;nan
14393;BME280;7281;42.678;23.372;2022-07-22T10:06:39;95192.13;;;35.46;nan
14393;BME280;7281;42.678;23.372;2022-07-22T10:09:14;95181.50;;;35.85;nan
14393;BME280;7281;42.678;23.372;2022-07-22T10:11:42;95186.38;;;35.71;nan
14393;BME280;7281;42.678;23.372;2022-07-22T10:14:18;95188.25;;;36.07;nan
14393;BME280;7281;42.678;23.372;2022-07-22T10:16:48;95171.63;;;35.98;nan
14393;BME280;7281;42.678;23.372;2022-07-22T10:19:16;95173.03;;;36.06;nan
14393;BME280;7281;42.678;23.372;2022-07-22T10:21:44;95180.88;;;35.74;nan
14393;BME280;7281;42.678;23.372;2022-07-22T10:24:15;95172.56;;;35.17;nan
14393;BME280;7281;42.678;23.372;2022-07-22T10:26:58;95167.34;;;35.97;nan
14393;BME280;7281;42.678;23.372;2022-07-22T10:29:39;95169.91;;;36.34;nan
14393;BME280;7281;42.678;23.372;2022-07-22T10:32:24;95170.91;;;36.71;nan
14393;BME280;7281;42.678;23.372;2022-07-22T10:40:23;95161.13;;;37.39;nan
14393;BME280;7281;42.678;23.372;2022-07-22T10:45:25;95169.97;;;36.81;nan
14393;BME280;7281;42.678;23.372;2022-07-22T10:47:58;95172.34;;;37.02;nan
14393;BME280;7281;42.678;23.372;2022-07-22T10:53:12;95168.38;;;37.26;nan
14393;BME280;7281;42.678;23.372;2022-07-22T10:56:12;95167.97;;;37.47;nan
14393;BME280;7281;42.678;23.372;2022-07-22T11:01:14;95165.78;;;37.58;nan
14393;BME280;7281;42.678;23.372;2022-07-22T11:03:44;95166.91;;;37.41;nan
14393;BME280;7281;42.678;23.372;2022-07-22T11:09:13;95162.00;;;37.72;nan
14393;BME280;7281;42.678;23.372;2022-07-22T11:11:52;95158.75;;;37.96;nan
14393;BME280;7281;42.678;23.372;2022-07-22T11:17:05;95157.09;;;38.18;nan
14393;BME280;7281;42.678;23.372;2022-07-22T11:19:33;95151.41;;;37.93;nan
14393;BME280;7281;42.678;23.372;2022-07-22T11:22:03;95155.69;;;38.10;nan
14393;BME280;7281;42.678;23.372;2022-07-22T11:24:31;95149.38;;;37.78;nan
14393;BME280;7281;42.678;23.372;2022-07-22T11:26:59;95147.97;;;38.05;nan
14393;BME280;7281;42.678;23.372;2022-07-22T11:29:35;95128.75;;;37.73;nan
14393;BME280;7281;42.678;23.372;2022-07-22T11:32:06;95147.44;;;38.30;nan
14393;BME280;7281;42.678;23.372;2022-07-22T11:34:36;95148.41;;;38.39;nan
14393;BME280;7281;42.678;23.372;2022-07-22T11:37:03;95150.16;;;37.78;nan
14393;BME280;7281;42.678;23.372;2022-07-22T11:39:30;95144.03;;;37.90;nan
14393;BME280;7281;42.678;23.372;2022-07-22T11:41:58;95140.69;;;38.18;nan
14393;BME280;7281;42.678;23.372;2022-07-22T11:44:33;95138.13;;;38.60;nan
14393;BME280;7281;42.678;23.372;2022-07-22T11:47:00;95140.59;;;38.22;nan
14393;BME280;7281;42.678;23.372;2022-07-22T11:49:32;95136.41;;;38.33;nan
14393;BME280;7281;42.678;23.372;2022-07-22T11:52:04;95132.03;;;38.84;nan
14393;BME280;7281;42.678;23.372;2022-07-22T11:54:31;95129.38;;;38.81;nan
14393;BME280;7281;42.678;23.372;2022-07-22T11:56:58;95134.94;;;38.61;nan
14393;BME280;7281;42.678;23.372;2022-07-22T11:59:25;95131.78;;;38.30;nan
14393;BME280;7281;42.678;23.372;2022-07-22T12:01:51;95118.69;;;38.70;nan
14393;BME280;7281;42.678;23.372;2022-07-22T12:04:22;95129.06;;;38.46;nan
14393;BME280;7281;42.678;23.372;2022-07-22T12:06:50;95127.69;;;38.38;nan
14393;BME280;7281;42.678;23.372;2022-07-22T12:09:25;95134.81;;;38.00;nan
14393;BME280;7281;42.678;23.372;2022-07-22T12:11:55;95133.78;;;38.10;nan
14393;BME280;7281;42.678;23.372;2022-07-22T12:14:27;95123.50;;;38.34;nan
14393;BME280;7281;42.678;23.372;2022-07-22T12:19:29;95122.03;;;38.78;nan
14393;BME280;7281;42.678;23.372;2022-07-22T12:22:20;95119.66;;;39.08;nan
14393;BME280;7281;42.678;23.372;2022-07-22T12:24:59;95115.50;;;39.16;nan
14393;BME280;7281;42.678;23.372;2022-07-22T12:27:27;95116.81;;;38.51;nan
14393;BME280;7281;42.678;23.372;2022-07-22T12:29:54;95122.53;;;38.57;nan
14393;BME280;7281;42.678;23.372;2022-07-22T12:32:25;95107.84;;;38.95;nan
14393;BME280;7281;42.678;23.372;2022-07-22T12:37:21;95093.34;;;39.11;nan
14393;BME280;7281;42.678;23.372;2022-07-22T12:40:10;95119.13;;;39.13;nan
14393;BME280;7281;42.678;23.372;2022-07-22T12:42:43;95099.63;;;39.24;nan
14393;BME280;7281;42.678;23.372;2022-07-22T12:47:48;95107.94;;;39.08;nan
14393;BME280;7281;42.678;23.372;2022-07-22T12:50:19;95117.41;;;38.75;nan
14393;BME280;7281;42.678;23.372;2022-07-22T12:52:47;95111.31;;;38.67;nan
14393;BME280;7281;42.678;23.372;2022-07-22T12:55:41;95107.66;;;39.31;nan
14393;BME280;7281;42.678;23.372;2022-07-22T12:58:09;95111.19;;;39.03;nan
14393;BME280;7281;42.678;23.372;2022-07-22T13:00:41;95106.75;;;39.50;nan
14393;BME280;7281;42.678;23.372;2022-07-22T13:03:09;95106.53;;;39.57;nan
14393;BME280;7281;42.678;23.372;2022-07-22T13:05:36;95098.88;;;39.52;nan
14393;BME280;7281;42.678;23.372;2022-07-22T13:08:03;95108.41;;;39.19;nan
14393;BME280;7281;42.678;23.372;2022-07-22T13:10:35;95117.69;;;39.09;nan
14393;BME280;7281;42.678;23.372;2022-07-22T13:13:02;95107.06;;;39.11;nan
14393;BME280;7281;42.678;23.372;2022-07-22T13:15:30;95104.25;;;39.68;nan
14393;BME280;7281;42.678;23.372;2022-07-22T13:17:57;95116.13;;;39.78;nan
14393;BME280;7281;42.678;23.372;2022-07-22T13:20:24;95113.38;;;39.65;nan
14393;BME280;7281;42.678;23.372;2022-07-22T13:22:51;95109.66;;;40.09;nan
14393;BME280;7281;42.678;23.372;2022-07-22T13:25:18;95113.81;;;39.76;nan
14393;BME280;7281;42.678;23.372;2022-07-22T13:27:45;95116.56;;;39.35;nan
14393;BME280;7281;42.678;23.372;2022-07-22T13:30:12;95120.41;;;39.91;nan
14393;BME280;7281;42.678;23.372;2022-07-22T13:32:39;95121.38;;;39.85;nan
14393;BME280;7281;42.678;23.372;2022-07-22T13:35:14;95123.66;;;39.61;nan
14393;BME280;7281;42.678;23.372;2022-07-22T13:37:42;95123.66;;;39.61;nan
14393;BME280;7281;42.678;23.372;2022-07-22T13:40:10;95128.75;;;39.34;nan
14393;BME280;7281;42.678;23.372;2022-07-22T13:42:37;95132.59;;;39.78;nan
14393;BME280;7281;42.678;23.372;2022-07-22T13:45:05;95124.56;;;39.58;nan
14393;BME280;7281;42.678;23.372;2022-07-22T13:47:34;95130.53;;;39.94;nan
14393;BME280;7281;42.678;23.372;2022-07-22T13:50:01;95118.66;;;40.22;nan
14393;BME280;7281;42.678;23.372;2022-07-22T13:52:27;95122.38;;;39.78;nan
14393;BME280;7281;42.678;23.372;2022-07-22T13:54:54;95123.38;;;39.97;nan
14393;BME280;7281;42.678;23.372;2022-07-22T13:57:22;95122.09;;;40.14;nan
14393;BME280;7281;42.678;23.372;2022-07-22T13:59:49;95125.88;;;39.91;nan
14393;BME280;7281;42.678;23.372;2022-07-22T14:02:16;95123.56;;;39.77;nan
14393;BME280;7281;42.678;23.372;2022-07-22T14:04:43;95122.38;;;40.54;nan